KCXY

Capital City Airport

Harrisburg, Pennsylvania, USA

KCXY 110856Z AUTO 28003KT 10SM OVC050 01/M06 A2999 RMK AO2 SLP161 T00111056 53002

Observed Flight Rules
Dec-11 @ 08:56 UTC (31 minutes ago) Visual Flight Rules
Wind Visibility Clouds
280° at 3 knots 10 miles
  • Overcast at 5,000' AGL
Temperatures Readings
Current 1°C / 34°F
Dewpoint -6°C / 21°F
Humidity 60%
Altimeter 29.99" Hg
Pressure 1016.1 hPa
Elevation 106
Observed Flight Rules
Dec-11 @ 08:56 UTC
(31 minutes ago)
VFR
Wind Visibility
280° at 3 knots 10 miles
Clouds
  • Overcast at 5,000' AGL
Temperature Dewpoint
1°C / 34°F -6°C / 21°F
Humidity Altimeter Pressure
60% 29.99" Hg 1016.1 hPa